CST,Max TemperatureF,Mean TemperatureF,Min TemperatureF,Max Dew PointF,MeanDew PointF,Min DewpointF,Max Humidity, Mean Humidity, Min Humidity, Max Sea Level PressureIn, Mean Sea Level PressureIn, Min Sea Level PressureIn, Max VisibilityMiles, Mean VisibilityMiles, Min VisibilityMiles, Max Wind SpeedMPH, Mean Wind SpeedMPH, Max Gust SpeedMPH,PrecipitationIn, CloudCover, Events, WindDirDegrees
2012-1-1,48,39,28,36,24,14,83,60,45,30.25,30.01,29.55,10,10,4,36,25,46,0.03,6,Rain-Snow,269
2012-1-2,28,22,15,16,11,6,73,58,41,30.47,30.34,30.24,10,9,2,28,20,40,0.00,5,Snow,292
2012-1-3,34,22,11,13,9,5,81,56,29,30.47,30.27,29.97,10,10,10,15,7,22,0.00,0,,179
2012-1-4,44,36,27,27,22,11,81,58,40,30.13,30.04,29.94,10,10,10,17,8,23,0.00,0,,241
2012-1-5,59,44,29,30,27,23,77,59,27,30.04,29.90,29.75,10,10,10,16,7,20,0.00,0,,197
2012-1-6,57,46,36,33,31,29,75,58,39,29.90,29.76,29.70,10,10,10,13,9,16,0.00,1,,237
2012-1-7,44,36,29,29,27,23,82,70,49,30.25,30.10,29.91,10,10,10,14,8,,0.00,0,,280
2012-1-8,42,33,24,31,26,19,89,78,61,30.35,30.29,30.24,10,9,4,7,3,,0.00,2,,199
2012-1-9,50,38,25,32,26,22,90,67,37,30.27,30.13,30.02,10,8,1,18,6,25,0.00,0,,210
2012-1-10,58,43,28,29,25,20,83,59,23,30.06,29.93,29.76,10,10,10,16,4,18,0.00,0,,185
2012-1-11,57,42,26,33,25,20,81,60,24,29.76,29.62,29.54,10,10,7,23,4,30,0.00,1,,296
2012-1-12,30,22,14,23,13,8,80,77,72,29.77,29.66,29.59,10,3,0,26,21,37,0.00,8,Snow,273
2012-1-13,19,12,4,12,10,0,82,74,67,30.09,29.96,29.77,10,8,3,21,15,25,0.00,7,Snow,259
2012-1-14,25,14,3,18,11,-2,82,74,61,30.23,30.12,30.03,10,10,0,7,2,,0.00,4,Snow,158
2012-1-15,40,30,20,28,23,16,86,70,54,30.26,30.12,29.93,10,10,7,17,9,29,0.00,1,,140
2012-1-16,51,42,34,41,33,27,87,75,66,29.92,29.74,29.64,10,10,7,13,8,,0.00,4,,121
2012-1-17,39,26,14,35,22,6,88,78,68,30.32,29.97,29.59,10,7,2,29,13,34,0.03,6,Rain-Snow,287
2012-1-18,30,20,9,17,10,4,81,65,48,30.33,30.11,29.82,10,10,10,17,7,23,0.00,1,,170
2012-1-19,31,17,3,21,4,-4,76,62,42,30.19,30.05,29.81,10,9,1,17,10,24,0.00,4,Snow,311
2012-1-20,20,13,6,16,6,-5,86,66,52,30.20,30.07,29.94,10,8,1,18,9,25,0.00,7,Snow,51
2012-1-21,26,20,15,18,14,10,83,75,66,30.23,30.14,29.98,10,10,7,16,11,18,0.00,6,,53
2012-1-22,43,32,21,42,31,17,93,90,82,29.97,29.69,29.36,10,1,0,15,11,25,0.00,8,Fog-Rain,124
2012-1-23,46,39,31,45,30,24,93,78,67,30.01,29.68,29.31,10,9,0,28,15,34,0.00,8,Fog-Rain-Snow-Thunderstorm,239
2012-1-24,37,32,26,26,24,23,93,73,58,30.34,30.22,30.01,10,10,10,15,8,18,0.00,5,,273
2012-1-25,36,32,29,31,27,25,92,80,67,30.33,30.19,30.01,10,8,3,13,5,18,0.00,3,,102
2012-1-26,40,36,33,36,33,31,95,90,81,30.00,29.81,29.71,10,4,0,16,3,21,0.00,7,Fog-Snow,273
2012-1-27,41,33,25,33,28,22,92,80,49,30.00,29.92,29.74,10,8,1,17,7,26,0.00,4,Snow,240
2012-1-28,39,32,25,32,23,18,89,68,50,30.16,30.10,29.94,10,10,10,21,15,29,0.00,1,Snow,234
2012-1-29,36,32,27,23,20,18,80,61,48,30.23,30.14,30.02,10,10,10,25,12,33,0.00,3,,244
2012-1-30,61,46,32,38,30,20,64,53,33,30.14,29.91,29.82,10,10,10,24,12,30,0.00,2,,167
2012-1-31,62,51,40,48,42,34,82,68,57,29.99,29.86,29.79,10,10,10,21,13,29,0.00,2,,206